Diyarbakir, Turkey

9:47 AM EEST on April 25, 2015 (GMT +0300)
Diyarbakir | | Change Station
CLOSE
Current Station
Airport
Location: Diyarbakir,
Elevation: 2221 ft
Nearby Weather Stations

Elev 2221 ft 37.88 °N, 40.18 °E | Updated 27 minutes ago

Clear
Clear
54 °F
Feels Like 54 °F
N
5
Wind Variable Wind from North

Today
High -- | Low -- °F
--% Chance of Precip.
Yesterday
High -- | Low -- °F
Precip. -- in
5:31 AM 7:03 PM
Waxing Crescent, 43% visible
Pressure 30.21 in
Visibility -9999.0 miles
Clouds
Dew Point 36 °F
Humidity 51%
Rainfall 0.00 in
Snow Depth Not available.
UV Not available.
Pollen Not available.
Air Quality Not available.
Flu Activity Not available.
METAR LTCC 250620Z 01004KT 290V100 CAVOK 12/02 Q1023 NOSIG

More Conditions Fewer Conditions

Pressure 30.21 in
Visibility -9999.0 miles
Clouds
Dew Point 36 °F
Humidity 51%
Rainfall 0.00 in
Snow Depth Not available.
UV Not available.
Pollen Not available.
Air Quality Not available.
Flu Activity Not available.
METAR LTCC 250620Z 01004KT 290V100 CAVOK 12/02 Q1023 NOSIG

More Conditions Fewer Conditions

10-Day Weather Forecast

Almanac

Astronomy

Apr. 25, 2015 Rise Set
Actual Time
Civil Twilight
Nautical Twilight
Astronomical Twilight
Moon
Length of Visible Light
Length of Day
Tomorrow will be .
, % of the Moon is Illuminated

Today's Extremes

Country Highs Country Lows

Community

WunderPhotos

Upload Photos

1,816,624 photos uploaded!

WunderBlogs® & News

Nearby

Air Quality

  Air Quality AQ Index Pollutant
Not available.

Snow Depth

Station Depth Elevation

Earthquake Activity

City Distance Mag. Time & Date
Minimum magnitude displayed is 2.5.

Coastal Water Temperatures

Place Temperature

Stations

Nearby Weather Stations

Station Location Temp. Windchill Dew Point Humidity Wind Precip. Elev Updated Type